sensor_id;sensor_type;location;lat;lon;timestamp;P1;durP1;ratioP1;P2;durP2;ratioP2
18387;SDS011;9320;50.256;19.026;2022-07-19T00:00:05;14.30;;;6.03;;
18387;SDS011;9320;50.256;19.026;2022-07-19T00:02:37;13.15;;;4.82;;
18387;SDS011;9320;50.256;19.026;2022-07-19T00:05:07;13.63;;;5.65;;
18387;SDS011;9320;50.256;19.026;2022-07-19T00:07:36;17.98;;;5.85;;
18387;SDS011;9320;50.256;19.026;2022-07-19T00:10:05;11.27;;;5.40;;
18387;SDS011;9320;50.256;19.026;2022-07-19T00:12:35;10.02;;;5.15;;
18387;SDS011;9320;50.256;19.026;2022-07-19T00:15:04;11.32;;;5.10;;
18387;SDS011;9320;50.256;19.026;2022-07-19T00:17:37;11.52;;;4.88;;
18387;SDS011;9320;50.256;19.026;2022-07-19T00:20:07;11.27;;;5.30;;
18387;SDS011;9320;50.256;19.026;2022-07-19T00:22:36;12.70;;;5.57;;
18387;SDS011;9320;50.256;19.026;2022-07-19T00:25:05;11.20;;;5.03;;
18387;SDS011;9320;50.256;19.026;2022-07-19T00:27:34;12.07;;;5.38;;
18387;SDS011;9320;50.256;19.026;2022-07-19T00:30:03;12.30;;;5.78;;
18387;SDS011;9320;50.256;19.026;2022-07-19T00:32:32;12.63;;;4.82;;
18387;SDS011;9320;50.256;19.026;2022-07-19T00:35:02;11.30;;;5.38;;
18387;SDS011;9320;50.256;19.026;2022-07-19T00:37:31;9.90;;;5.28;;
18387;SDS011;9320;50.256;19.026;2022-07-19T00:39:59;12.32;;;5.78;;
18387;SDS011;9320;50.256;19.026;2022-07-19T00:42:27;15.27;;;5.35;;
18387;SDS011;9320;50.256;19.026;2022-07-19T00:44:56;10.63;;;5.50;;
18387;SDS011;9320;50.256;19.026;2022-07-19T00:47:24;15.10;;;6.40;;
18387;SDS011;9320;50.256;19.026;2022-07-19T00:49:52;11.00;;;5.88;;
18387;SDS011;9320;50.256;19.026;2022-07-19T00:52:22;15.50;;;6.20;;
18387;SDS011;9320;50.256;19.026;2022-07-19T00:54:53;12.13;;;5.88;;
18387;SDS011;9320;50.256;19.026;2022-07-19T00:57:22;13.38;;;6.05;;
18387;SDS011;9320;50.256;19.026;2022-07-19T00:59:51;12.32;;;5.75;;
18387;SDS011;9320;50.256;19.026;2022-07-19T01:02:21;13.07;;;6.13;;
18387;SDS011;9320;50.256;19.026;2022-07-19T01:04:50;13.90;;;6.07;;
18387;SDS011;9320;50.256;19.026;2022-07-19T01:07:24;14.57;;;6.47;;
18387;SDS011;9320;50.256;19.026;2022-07-19T01:09:52;13.35;;;6.40;;
18387;SDS011;9320;50.256;19.026;2022-07-19T01:12:20;10.77;;;5.90;;
18387;SDS011;9320;50.256;19.026;2022-07-19T01:14:49;12.32;;;6.03;;
18387;SDS011;9320;50.256;19.026;2022-07-19T01:17:17;12.18;;;6.28;;
18387;SDS011;9320;50.256;19.026;2022-07-19T01:19:45;15.25;;;6.15;;
18387;SDS011;9320;50.256;19.026;2022-07-19T01:22:15;13.48;;;6.35;;
18387;SDS011;9320;50.256;19.026;2022-07-19T01:24:43;11.95;;;5.68;;
18387;SDS011;9320;50.256;19.026;2022-07-19T01:27:12;13.25;;;6.05;;
18387;SDS011;9320;50.256;19.026;2022-07-19T01:29:40;15.25;;;6.53;;
18387;SDS011;9320;50.256;19.026;2022-07-19T01:32:09;14.25;;;6.45;;
18387;SDS011;9320;50.256;19.026;2022-07-19T01:34:37;13.98;;;6.00;;
18387;SDS011;9320;50.256;19.026;2022-07-19T01:37:05;12.02;;;5.75;;
18387;SDS011;9320;50.256;19.026;2022-07-19T01:39:35;13.77;;;6.20;;
18387;SDS011;9320;50.256;19.026;2022-07-19T01:42:03;14.60;;;6.22;;
18387;SDS011;9320;50.256;19.026;2022-07-19T01:44:31;10.70;;;5.97;;
18387;SDS011;9320;50.256;19.026;2022-07-19T01:47:00;9.07;;;5.28;;
18387;SDS011;9320;50.256;19.026;2022-07-19T01:49:28;11.85;;;6.05;;
18387;SDS011;9320;50.256;19.026;2022-07-19T01:51:56;13.98;;;6.05;;
18387;SDS011;9320;50.256;19.026;2022-07-19T01:54:24;12.38;;;5.65;;
18387;SDS011;9320;50.256;19.026;2022-07-19T01:56:54;11.98;;;5.70;;
18387;SDS011;9320;50.256;19.026;2022-07-19T01:59:22;17.27;;;5.85;;
18387;SDS011;9320;50.256;19.026;2022-07-19T02:01:50;14.90;;;5.95;;
18387;SDS011;9320;50.256;19.026;2022-07-19T02:04:19;11.65;;;5.70;;
18387;SDS011;9320;50.256;19.026;2022-07-19T02:06:48;13.50;;;5.80;;
18387;SDS011;9320;50.256;19.026;2022-07-19T02:09:16;12.15;;;5.60;;
18387;SDS011;9320;50.256;19.026;2022-07-19T02:11:44;12.70;;;6.03;;
18387;SDS011;9320;50.256;19.026;2022-07-19T02:14:14;10.27;;;6.13;;
18387;SDS011;9320;50.256;19.026;2022-07-19T02:16:42;15.05;;;5.60;;
18387;SDS011;9320;50.256;19.026;2022-07-19T02:19:11;16.65;;;5.90;;
18387;SDS011;9320;50.256;19.026;2022-07-19T02:21:39;13.20;;;5.70;;
18387;SDS011;9320;50.256;19.026;2022-07-19T02:24:07;14.93;;;6.32;;
18387;SDS011;9320;50.256;19.026;2022-07-19T02:26:36;15.45;;;6.55;;
18387;SDS011;9320;50.256;19.026;2022-07-19T02:29:04;14.43;;;6.07;;
18387;SDS011;9320;50.256;19.026;2022-07-19T02:31:34;12.93;;;6.07;;
18387;SDS011;9320;50.256;19.026;2022-07-19T02:34:04;10.90;;;5.28;;
18387;SDS011;9320;50.256;19.026;2022-07-19T02:36:32;13.70;;;6.63;;
18387;SDS011;9320;50.256;19.026;2022-07-19T02:39:00;13.05;;;6.03;;
18387;SDS011;9320;50.256;19.026;2022-07-19T02:41:28;12.45;;;5.95;;
18387;SDS011;9320;50.256;19.026;2022-07-19T02:43:58;14.05;;;6.50;;
18387;SDS011;9320;50.256;19.026;2022-07-19T02:46:26;14.70;;;6.43;;
18387;SDS011;9320;50.256;19.026;2022-07-19T02:48:56;13.90;;;6.40;;
18387;SDS011;9320;50.256;19.026;2022-07-19T02:51:24;14.88;;;6.03;;
18387;SDS011;9320;50.256;19.026;2022-07-19T02:53:52;14.82;;;5.90;;
18387;SDS011;9320;50.256;19.026;2022-07-19T02:56:20;12.40;;;5.85;;
18387;SDS011;9320;50.256;19.026;2022-07-19T02:58:48;17.40;;;6.20;;
18387;SDS011;9320;50.256;19.026;2022-07-19T03:01:17;11.82;;;5.68;;
18387;SDS011;9320;50.256;19.026;2022-07-19T03:03:45;15.35;;;5.93;;
18387;SDS011;9320;50.256;19.026;2022-07-19T03:06:16;9.85;;;5.65;;
18387;SDS011;9320;50.256;19.026;2022-07-19T03:08:45;12.45;;;6.50;;
18387;SDS011;9320;50.256;19.026;2022-07-19T03:11:14;9.70;;;5.50;;
18387;SDS011;9320;50.256;19.026;2022-07-19T03:13:42;15.75;;;5.90;;
18387;SDS011;9320;50.256;19.026;2022-07-19T03:16:10;14.38;;;5.97;;
18387;SDS011;9320;50.256;19.026;2022-07-19T03:18:39;11.80;;;6.13;;
18387;SDS011;9320;50.256;19.026;2022-07-19T03:21:07;15.05;;;5.95;;
18387;SDS011;9320;50.256;19.026;2022-07-19T03:23:37;15.05;;;6.05;;
18387;SDS011;9320;50.256;19.026;2022-07-19T03:26:05;13.02;;;6.18;;
18387;SDS011;9320;50.256;19.026;2022-07-19T03:28:33;14.05;;;6.10;;
18387;SDS011;9320;50.256;19.026;2022-07-19T03:31:02;14.13;;;6.40;;
18387;SDS011;9320;50.256;19.026;2022-07-19T03:33:30;12.40;;;6.40;;
18387;SDS011;9320;50.256;19.026;2022-07-19T03:35:59;14.23;;;6.47;;
18387;SDS011;9320;50.256;19.026;2022-07-19T03:38:27;17.17;;;6.38;;
18387;SDS011;9320;50.256;19.026;2022-07-19T03:40:56;15.80;;;6.70;;
18387;SDS011;9320;50.256;19.026;2022-07-19T03:43:25;12.50;;;5.90;;
18387;SDS011;9320;50.256;19.026;2022-07-19T03:45:53;12.93;;;5.70;;
18387;SDS011;9320;50.256;19.026;2022-07-19T03:48:21;14.07;;;5.70;;
18387;SDS011;9320;50.256;19.026;2022-07-19T03:50:49;14.65;;;6.60;;
18387;SDS011;9320;50.256;19.026;2022-07-19T03:53:17;11.43;;;6.10;;
18387;SDS011;9320;50.256;19.026;2022-07-19T03:55:46;10.68;;;5.93;;
18387;SDS011;9320;50.256;19.026;2022-07-19T03:58:15;12.77;;;6.30;;
18387;SDS011;9320;50.256;19.026;2022-07-19T04:00:43;15.20;;;6.70;;
18387;SDS011;9320;50.256;19.026;2022-07-19T04:03:11;14.23;;;6.43;;
18387;SDS011;9320;50.256;19.026;2022-07-19T04:05:40;15.68;;;6.53;;
18387;SDS011;9320;50.256;19.026;2022-07-19T04:08:08;13.15;;;6.45;;
18387;SDS011;9320;50.256;19.026;2022-07-19T04:10:37;14.40;;;6.28;;
18387;SDS011;9320;50.256;19.026;2022-07-19T04:13:05;13.57;;;6.47;;
18387;SDS011;9320;50.256;19.026;2022-07-19T04:15:35;14.20;;;6.47;;
18387;SDS011;9320;50.256;19.026;2022-07-19T04:18:11;13.35;;;6.20;;
18387;SDS011;9320;50.256;19.026;2022-07-19T04:20:39;16.75;;;7.20;;
18387;SDS011;9320;50.256;19.026;2022-07-19T04:23:07;16.38;;;6.55;;
18387;SDS011;9320;50.256;19.026;2022-07-19T04:25:35;13.38;;;6.80;;
18387;SDS011;9320;50.256;19.026;2022-07-19T04:28:04;13.30;;;6.57;;
18387;SDS011;9320;50.256;19.026;2022-07-19T04:30:32;18.52;;;6.90;;
18387;SDS011;9320;50.256;19.026;2022-07-19T04:33:01;16.02;;;6.53;;
18387;SDS011;9320;50.256;19.026;2022-07-19T04:35:30;14.82;;;6.78;;
18387;SDS011;9320;50.256;19.026;2022-07-19T04:37:58;16.52;;;6.55;;
18387;SDS011;9320;50.256;19.026;2022-07-19T04:40:26;13.43;;;6.30;;
18387;SDS011;9320;50.256;19.026;2022-07-19T04:42:54;15.25;;;6.50;;
18387;SDS011;9320;50.256;19.026;2022-07-19T04:45:23;19.20;;;6.63;;
18387;SDS011;9320;50.256;19.026;2022-07-19T04:47:51;14.90;;;7.00;;
18387;SDS011;9320;50.256;19.026;2022-07-19T04:50:21;16.27;;;7.85;;
18387;SDS011;9320;50.256;19.026;2022-07-19T04:52:49;14.90;;;7.28;;
18387;SDS011;9320;50.256;19.026;2022-07-19T04:55:17;16.70;;;7.55;;
18387;SDS011;9320;50.256;19.026;2022-07-19T04:57:45;19.00;;;7.22;;
18387;SDS011;9320;50.256;19.026;2022-07-19T05:00:13;15.40;;;7.93;;
18387;SDS011;9320;50.256;19.026;2022-07-19T05:02:42;18.42;;;7.60;;
18387;SDS011;9320;50.256;19.026;2022-07-19T05:05:10;15.30;;;7.25;;
18387;SDS011;9320;50.256;19.026;2022-07-19T05:07:40;18.20;;;7.50;;
18387;SDS011;9320;50.256;19.026;2022-07-19T05:10:10;18.05;;;8.35;;
18387;SDS011;9320;50.256;19.026;2022-07-19T05:12:38;18.02;;;8.07;;
18387;SDS011;9320;50.256;19.026;2022-07-19T05:15:08;17.23;;;8.93;;
18387;SDS011;9320;50.256;19.026;2022-07-19T05:17:41;19.08;;;8.73;;
18387;SDS011;9320;50.256;19.026;2022-07-19T05:20:10;19.90;;;7.25;;
18387;SDS011;9320;50.256;19.026;2022-07-19T05:22:41;19.85;;;8.15;;
18387;SDS011;9320;50.256;19.026;2022-07-19T05:25:14;18.15;;;7.93;;
18387;SDS011;9320;50.256;19.026;2022-07-19T05:27:42;22.48;;;8.57;;
18387;SDS011;9320;50.256;19.026;2022-07-19T05:30:11;21.25;;;8.73;;
18387;SDS011;9320;50.256;19.026;2022-07-19T05:32:40;20.88;;;8.15;;
18387;SDS011;9320;50.256;19.026;2022-07-19T05:35:08;19.58;;;8.25;;
18387;SDS011;9320;50.256;19.026;2022-07-19T05:37:36;22.15;;;7.78;;
18387;SDS011;9320;50.256;19.026;2022-07-19T05:40:07;20.88;;;7.95;;
18387;SDS011;9320;50.256;19.026;2022-07-19T05:42:36;19.42;;;8.05;;
18387;SDS011;9320;50.256;19.026;2022-07-19T05:45:04;20.33;;;7.75;;
18387;SDS011;9320;50.256;19.026;2022-07-19T05:47:33;20.38;;;6.95;;
18387;SDS011;9320;50.256;19.026;2022-07-19T05:50:01;16.48;;;6.85;;
18387;SDS011;9320;50.256;19.026;2022-07-19T05:52:30;15.90;;;6.80;;
18387;SDS011;9320;50.256;19.026;2022-07-19T05:55:03;17.08;;;7.10;;
18387;SDS011;9320;50.256;19.026;2022-07-19T05:57:34;16.63;;;6.97;;
18387;SDS011;9320;50.256;19.026;2022-07-19T06:00:02;13.38;;;5.80;;
18387;SDS011;9320;50.256;19.026;2022-07-19T06:02:32;16.48;;;6.80;;
18387;SDS011;9320;50.256;19.026;2022-07-19T06:05:00;12.55;;;5.25;;
18387;SDS011;9320;50.256;19.026;2022-07-19T06:07:29;12.45;;;5.40;;
18387;SDS011;9320;50.256;19.026;2022-07-19T06:09:57;14.73;;;5.45;;
18387;SDS011;9320;50.256;19.026;2022-07-19T06:12:25;13.27;;;5.55;;
18387;SDS011;9320;50.256;19.026;2022-07-19T06:14:55;13.05;;;5.50;;
18387;SDS011;9320;50.256;19.026;2022-07-19T06:17:23;17.30;;;6.35;;
18387;SDS011;9320;50.256;19.026;2022-07-19T06:19:51;15.55;;;6.38;;
18387;SDS011;9320;50.256;19.026;2022-07-19T06:22:19;22.35;;;7.22;;
18387;SDS011;9320;50.256;19.026;2022-07-19T06:24:48;16.95;;;6.47;;
18387;SDS011;9320;50.256;19.026;2022-07-19T06:27:16;17.63;;;6.55;;
18387;SDS011;9320;50.256;19.026;2022-07-19T06:29:45;14.20;;;6.43;;
18387;SDS011;9320;50.256;19.026;2022-07-19T06:32:14;17.38;;;6.65;;
18387;SDS011;9320;50.256;19.026;2022-07-19T06:34:43;13.07;;;5.82;;
18387;SDS011;9320;50.256;19.026;2022-07-19T06:37:11;13.55;;;5.78;;
18387;SDS011;9320;50.256;19.026;2022-07-19T06:39:39;23.42;;;5.82;;
18387;SDS011;9320;50.256;19.026;2022-07-19T06:42:08;15.55;;;5.50;;
18387;SDS011;9320;50.256;19.026;2022-07-19T06:44:36;12.07;;;5.35;;
18387;SDS011;9320;50.256;19.026;2022-07-19T06:47:04;16.08;;;5.28;;
18387;SDS011;9320;50.256;19.026;2022-07-19T06:49:34;14.75;;;4.80;;
18387;SDS011;9320;50.256;19.026;2022-07-19T06:52:03;13.00;;;4.68;;
18387;SDS011;9320;50.256;19.026;2022-07-19T06:54:39;10.20;;;4.40;;
18387;SDS011;9320;50.256;19.026;2022-07-19T06:57:07;16.00;;;5.78;;
18387;SDS011;9320;50.256;19.026;2022-07-19T06:59:35;15.00;;;5.45;;
18387;SDS011;9320;50.256;19.026;2022-07-19T07:02:04;18.95;;;5.65;;
18387;SDS011;9320;50.256;19.026;2022-07-19T07:04:32;11.93;;;5.78;;
18387;SDS011;9320;50.256;19.026;2022-07-19T07:07:11;13.65;;;6.13;;
18387;SDS011;9320;50.256;19.026;2022-07-19T07:09:39;18.33;;;6.32;;
18387;SDS011;9320;50.256;19.026;2022-07-19T07:12:08;17.33;;;6.68;;
18387;SDS011;9320;50.256;19.026;2022-07-19T07:14:36;14.10;;;4.75;;
18387;SDS011;9320;50.256;19.026;2022-07-19T07:17:04;14.52;;;4.88;;
18387;SDS011;9320;50.256;19.026;2022-07-19T07:19:32;12.85;;;4.50;;
18387;SDS011;9320;50.256;19.026;2022-07-19T07:22:02;11.93;;;4.68;;
18387;SDS011;9320;50.256;19.026;2022-07-19T07:24:31;9.30;;;4.40;;
18387;SDS011;9320;50.256;19.026;2022-07-19T07:27:00;10.60;;;3.92;;
18387;SDS011;9320;50.256;19.026;2022-07-19T07:29:28;12.05;;;4.00;;
18387;SDS011;9320;50.256;19.026;2022-07-19T07:31:56;9.52;;;4.07;;
18387;SDS011;9320;50.256;19.026;2022-07-19T07:34:25;7.00;;;3.63;;
18387;SDS011;9320;50.256;19.026;2022-07-19T07:37:01;9.77;;;3.80;;
18387;SDS011;9320;50.256;19.026;2022-07-19T07:39:30;17.08;;;4.38;;
18387;SDS011;9320;50.256;19.026;2022-07-19T07:41:58;11.93;;;3.88;;
18387;SDS011;9320;50.256;19.026;2022-07-19T07:44:37;10.52;;;4.00;;
18387;SDS011;9320;50.256;19.026;2022-07-19T07:47:06;15.05;;;3.92;;
18387;SDS011;9320;50.256;19.026;2022-07-19T07:49:35;10.02;;;3.80;;
18387;SDS011;9320;50.256;19.026;2022-07-19T07:52:05;14.73;;;4.28;;
18387;SDS011;9320;50.256;19.026;2022-07-19T07:54:34;13.45;;;4.45;;
18387;SDS011;9320;50.256;19.026;2022-07-19T07:57:22;10.25;;;4.05;;
18387;SDS011;9320;50.256;19.026;2022-07-19T07:59:51;15.02;;;4.75;;
18387;SDS011;9320;50.256;19.026;2022-07-19T08:02:19;12.10;;;4.97;;
18387;SDS011;9320;50.256;19.026;2022-07-19T08:04:47;12.32;;;4.38;;
18387;SDS011;9320;50.256;19.026;2022-07-19T08:07:17;31.23;;;6.95;;
18387;SDS011;9320;50.256;19.026;2022-07-19T08:09:45;13.98;;;5.10;;
18387;SDS011;9320;50.256;19.026;2022-07-19T08:12:13;13.93;;;4.32;;
18387;SDS011;9320;50.256;19.026;2022-07-19T08:14:41;11.50;;;4.30;;
18387;SDS011;9320;50.256;19.026;2022-07-19T08:17:10;12.57;;;4.53;;
18387;SDS011;9320;50.256;19.026;2022-07-19T08:19:38;12.27;;;4.53;;
18387;SDS011;9320;50.256;19.026;2022-07-19T08:22:06;10.32;;;4.05;;
18387;SDS011;9320;50.256;19.026;2022-07-19T08:24:36;11.20;;;3.85;;
18387;SDS011;9320;50.256;19.026;2022-07-19T08:27:05;9.15;;;3.88;;
18387;SDS011;9320;50.256;19.026;2022-07-19T08:29:33;10.27;;;3.30;;
18387;SDS011;9320;50.256;19.026;2022-07-19T08:32:01;11.57;;;4.70;;
18387;SDS011;9320;50.256;19.026;2022-07-19T08:34:30;7.35;;;3.00;;
18387;SDS011;9320;50.256;19.026;2022-07-19T08:36:58;8.32;;;3.47;;
18387;SDS011;9320;50.256;19.026;2022-07-19T08:39:27;15.25;;;3.30;;
18387;SDS011;9320;50.256;19.026;2022-07-19T08:41:56;5.50;;;2.78;;
18387;SDS011;9320;50.256;19.026;2022-07-19T08:44:25;8.55;;;3.30;;
18387;SDS011;9320;50.256;19.026;2022-07-19T08:46:54;7.80;;;2.90;;
18387;SDS011;9320;50.256;19.026;2022-07-19T08:49:23;5.97;;;3.03;;
18387;SDS011;9320;50.256;19.026;2022-07-19T08:51:51;5.45;;;2.53;;
18387;SDS011;9320;50.256;19.026;2022-07-19T08:54:20;13.32;;;3.38;;
18387;SDS011;9320;50.256;19.026;2022-07-19T08:56:48;5.57;;;2.67;;
18387;SDS011;9320;50.256;19.026;2022-07-19T08:59:35;8.05;;;2.80;;
18387;SDS011;9320;50.256;19.026;2022-07-19T09:02:03;6.75;;;2.50;;
18387;SDS011;9320;50.256;19.026;2022-07-19T09:04:31;4.20;;;2.20;;
18387;SDS011;9320;50.256;19.026;2022-07-19T09:07:00;6.18;;;2.63;;
18387;SDS011;9320;50.256;19.026;2022-07-19T09:09:29;6.97;;;2.92;;
18387;SDS011;9320;50.256;19.026;2022-07-19T09:11:59;11.00;;;2.63;;
18387;SDS011;9320;50.256;19.026;2022-07-19T09:14:30;9.07;;;2.40;;
18387;SDS011;9320;50.256;19.026;2022-07-19T09:17:03;12.07;;;3.20;;
18387;SDS011;9320;50.256;19.026;2022-07-19T09:19:36;7.32;;;3.00;;
18387;SDS011;9320;50.256;19.026;2022-07-19T09:22:05;6.13;;;2.30;;
18387;SDS011;9320;50.256;19.026;2022-07-19T09:24:35;5.95;;;2.45;;
18387;SDS011;9320;50.256;19.026;2022-07-19T09:27:05;3.55;;;2.22;;
18387;SDS011;9320;50.256;19.026;2022-07-19T09:29:36;7.32;;;2.65;;
18387;SDS011;9320;50.256;19.026;2022-07-19T09:32:08;5.53;;;2.58;;
18387;SDS011;9320;50.256;19.026;2022-07-19T09:34:38;9.05;;;2.90;;
18387;SDS011;9320;50.256;19.026;2022-07-19T09:37:09;9.85;;;2.63;;
18387;SDS011;9320;50.256;19.026;2022-07-19T09:39:41;6.68;;;2.67;;
18387;SDS011;9320;50.256;19.026;2022-07-19T09:42:13;7.28;;;2.75;;
18387;SDS011;9320;50.256;19.026;2022-07-19T09:44:43;6.00;;;3.00;;
18387;SDS011;9320;50.256;19.026;2022-07-19T09:47:14;8.60;;;4.07;;
18387;SDS011;9320;50.256;19.026;2022-07-19T09:49:58;6.40;;;2.55;;
18387;SDS011;9320;50.256;19.026;2022-07-19T09:52:26;10.40;;;3.40;;
18387;SDS011;9320;50.256;19.026;2022-07-19T09:55:04;7.03;;;2.70;;
18387;SDS011;9320;50.256;19.026;2022-07-19T09:57:34;4.03;;;2.50;;
18387;SDS011;9320;50.256;19.026;2022-07-19T10:00:04;6.22;;;2.30;;
18387;SDS011;9320;50.256;19.026;2022-07-19T10:02:36;9.50;;;2.90;;
18387;SDS011;9320;50.256;19.026;2022-07-19T10:05:07;5.85;;;2.28;;
18387;SDS011;9320;50.256;19.026;2022-07-19T10:07:37;6.95;;;2.90;;
18387;SDS011;9320;50.256;19.026;2022-07-19T10:10:06;4.70;;;2.40;;
18387;SDS011;9320;50.256;19.026;2022-07-19T10:12:36;4.95;;;2.58;;
18387;SDS011;9320;50.256;19.026;2022-07-19T10:15:06;3.90;;;2.40;;
18387;SDS011;9320;50.256;19.026;2022-07-19T10:17:37;6.47;;;2.53;;
18387;SDS011;9320;50.256;19.026;2022-07-19T10:20:07;5.88;;;2.60;;
18387;SDS011;9320;50.256;19.026;2022-07-19T10:22:38;5.20;;;2.22;;
18387;SDS011;9320;50.256;19.026;2022-07-19T10:25:11;4.72;;;2.42;;
18387;SDS011;9320;50.256;19.026;2022-07-19T10:27:41;7.75;;;2.70;;
18387;SDS011;9320;50.256;19.026;2022-07-19T10:30:18;4.82;;;2.67;;
18387;SDS011;9320;50.256;19.026;2022-07-19T10:32:55;7.05;;;2.92;;
18387;SDS011;9320;50.256;19.026;2022-07-19T10:35:27;7.03;;;3.05;;
18387;SDS011;9320;50.256;19.026;2022-07-19T10:38:06;19.60;;;3.58;;
18387;SDS011;9320;50.256;19.026;2022-07-19T10:40:36;5.25;;;2.22;;
18387;SDS011;9320;50.256;19.026;2022-07-19T10:43:09;7.82;;;2.58;;
18387;SDS011;9320;50.256;19.026;2022-07-19T10:45:39;5.80;;;2.67;;
18387;SDS011;9320;50.256;19.026;2022-07-19T10:48:10;6.07;;;2.70;;
18387;SDS011;9320;50.256;19.026;2022-07-19T10:50:50;6.53;;;2.50;;
18387;SDS011;9320;50.256;19.026;2022-07-19T10:56:31;7.32;;;2.80;;
18387;SDS011;9320;50.256;19.026;2022-07-19T10:59:32;5.60;;;2.90;;
18387;SDS011;9320;50.256;19.026;2022-07-19T11:02:02;9.40;;;3.15;;
18387;SDS011;9320;50.256;19.026;2022-07-19T11:04:53;6.95;;;2.67;;
18387;SDS011;9320;50.256;19.026;2022-07-19T11:07:23;7.10;;;2.67;;
18387;SDS011;9320;50.256;19.026;2022-07-19T11:09:53;6.22;;;2.97;;
18387;SDS011;9320;50.256;19.026;2022-07-19T11:12:29;6.95;;;3.00;;
18387;SDS011;9320;50.256;19.026;2022-07-19T11:15:00;7.97;;;2.90;;
18387;SDS011;9320;50.256;19.026;2022-07-19T11:17:50;5.90;;;2.47;;
18387;SDS011;9320;50.256;19.026;2022-07-19T11:20:22;7.00;;;2.55;;
18387;SDS011;9320;50.256;19.026;2022-07-19T11:22:52;10.40;;;3.15;;
18387;SDS011;9320;50.256;19.026;2022-07-19T11:25:24;3.83;;;2.33;;
18387;SDS011;9320;50.256;19.026;2022-07-19T11:27:54;5.05;;;2.75;;
18387;SDS011;9320;50.256;19.026;2022-07-19T11:30:23;5.63;;;2.50;;
18387;SDS011;9320;50.256;19.026;2022-07-19T11:32:53;9.25;;;2.60;;
18387;SDS011;9320;50.256;19.026;2022-07-19T11:35:24;5.82;;;2.70;;
18387;SDS011;9320;50.256;19.026;2022-07-19T11:37:55;5.95;;;2.50;;
18387;SDS011;9320;50.256;19.026;2022-07-19T11:40:28;22.90;;;3.92;;
18387;SDS011;9320;50.256;19.026;2022-07-19T11:43:03;4.13;;;2.15;;
18387;SDS011;9320;50.256;19.026;2022-07-19T11:45:43;7.22;;;2.40;;
18387;SDS011;9320;50.256;19.026;2022-07-19T11:48:22;6.70;;;2.53;;
18387;SDS011;9320;50.256;19.026;2022-07-19T11:51:00;5.32;;;2.63;;
18387;SDS011;9320;50.256;19.026;2022-07-19T11:53:30;5.28;;;2.50;;
18387;SDS011;9320;50.256;19.026;2022-07-19T11:55:59;8.60;;;2.53;;
18387;SDS011;9320;50.256;19.026;2022-07-19T11:58:28;4.97;;;2.40;;
18387;SDS011;9320;50.256;19.026;2022-07-19T12:01:00;22.23;;;3.00;;
18387;SDS011;9320;50.256;19.026;2022-07-19T12:03:30;10.00;;;3.00;;
18387;SDS011;9320;50.256;19.026;2022-07-19T12:06:01;6.28;;;2.50;;
18387;SDS011;9320;50.256;19.026;2022-07-19T12:08:37;7.30;;;2.47;;
18387;SDS011;9320;50.256;19.026;2022-07-19T12:11:20;8.07;;;2.63;;
18387;SDS011;9320;50.256;19.026;2022-07-19T12:13:50;6.95;;;2.50;;
18387;SDS011;9320;50.256;19.026;2022-07-19T12:16:20;8.50;;;2.35;;
18387;SDS011;9320;50.256;19.026;2022-07-19T12:18:50;6.43;;;2.75;;
18387;SDS011;9320;50.256;19.026;2022-07-19T12:21:22;7.88;;;2.38;;
18387;SDS011;9320;50.256;19.026;2022-07-19T12:26:55;6.50;;;2.28;;
18387;SDS011;9320;50.256;19.026;2022-07-19T12:29:26;6.95;;;2.40;;
18387;SDS011;9320;50.256;19.026;2022-07-19T12:31:59;3.80;;;2.30;;
18387;SDS011;9320;50.256;19.026;2022-07-19T12:34:29;7.47;;;2.40;;
18387;SDS011;9320;50.256;19.026;2022-07-19T12:37:19;5.82;;;2.47;;
18387;SDS011;9320;50.256;19.026;2022-07-19T12:40:01;9.50;;;2.47;;
18387;SDS011;9320;50.256;19.026;2022-07-19T12:42:36;6.75;;;2.88;;
18387;SDS011;9320;50.256;19.026;2022-07-19T12:45:07;5.63;;;2.50;;
18387;SDS011;9320;50.256;19.026;2022-07-19T12:47:36;9.15;;;2.58;;
18387;SDS011;9320;50.256;19.026;2022-07-19T12:50:05;6.30;;;2.60;;
18387;SDS011;9320;50.256;19.026;2022-07-19T12:52:39;4.95;;;2.40;;
18387;SDS011;9320;50.256;19.026;2022-07-19T12:55:07;4.85;;;2.22;;
18387;SDS011;9320;50.256;19.026;2022-07-19T12:57:44;6.20;;;3.15;;
18387;SDS011;9320;50.256;19.026;2022-07-19T13:00:14;21.40;;;3.30;;
18387;SDS011;9320;50.256;19.026;2022-07-19T13:02:43;6.95;;;2.75;;
18387;SDS011;9320;50.256;19.026;2022-07-19T13:05:13;6.93;;;2.20;;
18387;SDS011;9320;50.256;19.026;2022-07-19T13:07:43;7.28;;;2.65;;
18387;SDS011;9320;50.256;19.026;2022-07-19T13:10:11;5.03;;;2.58;;
18387;SDS011;9320;50.256;19.026;2022-07-19T13:12:40;7.93;;;2.50;;
18387;SDS011;9320;50.256;19.026;2022-07-19T13:15:09;8.00;;;2.78;;
18387;SDS011;9320;50.256;19.026;2022-07-19T13:17:39;5.82;;;2.45;;
18387;SDS011;9320;50.256;19.026;2022-07-19T13:20:08;7.70;;;2.30;;
18387;SDS011;9320;50.256;19.026;2022-07-19T13:22:38;5.05;;;2.47;;
18387;SDS011;9320;50.256;19.026;2022-07-19T13:25:09;5.90;;;2.40;;
18387;SDS011;9320;50.256;19.026;2022-07-19T13:27:58;21.83;;;3.47;;
18387;SDS011;9320;50.256;19.026;2022-07-19T13:30:26;14.05;;;3.83;;
18387;SDS011;9320;50.256;19.026;2022-07-19T13:32:54;6.38;;;2.63;;
18387;SDS011;9320;50.256;19.026;2022-07-19T13:35:23;7.07;;;2.60;;
18387;SDS011;9320;50.256;19.026;2022-07-19T13:37:51;8.43;;;2.33;;
18387;SDS011;9320;50.256;19.026;2022-07-19T13:40:20;6.57;;;2.25;;
18387;SDS011;9320;50.256;19.026;2022-07-19T13:42:49;6.05;;;2.63;;
18387;SDS011;9320;50.256;19.026;2022-07-19T13:45:17;14.10;;;2.60;;
18387;SDS011;9320;50.256;19.026;2022-07-19T13:47:45;4.93;;;2.20;;
18387;SDS011;9320;50.256;19.026;2022-07-19T13:50:13;5.20;;;2.30;;
18387;SDS011;9320;50.256;19.026;2022-07-19T13:52:41;9.82;;;2.72;;
18387;SDS011;9320;50.256;19.026;2022-07-19T13:55:10;6.53;;;2.55;;
18387;SDS011;9320;50.256;19.026;2022-07-19T13:57:39;5.38;;;2.20;;
18387;SDS011;9320;50.256;19.026;2022-07-19T14:00:08;4.22;;;2.17;;
18387;SDS011;9320;50.256;19.026;2022-07-19T14:02:37;6.57;;;2.45;;
18387;SDS011;9320;50.256;19.026;2022-07-19T14:05:06;10.23;;;2.75;;
18387;SDS011;9320;50.256;19.026;2022-07-19T14:07:35;4.95;;;2.47;;
18387;SDS011;9320;50.256;19.026;2022-07-19T14:10:03;6.68;;;2.45;;
18387;SDS011;9320;50.256;19.026;2022-07-19T14:12:32;6.95;;;2.58;;
18387;SDS011;9320;50.256;19.026;2022-07-19T14:15:02;5.40;;;2.47;;
18387;SDS011;9320;50.256;19.026;2022-07-19T14:17:31;6.30;;;2.35;;
18387;SDS011;9320;50.256;19.026;2022-07-19T14:19:59;10.95;;;2.78;;
18387;SDS011;9320;50.256;19.026;2022-07-19T14:22:28;4.95;;;2.63;;
18387;SDS011;9320;50.256;19.026;2022-07-19T14:24:56;4.78;;;2.42;;
18387;SDS011;9320;50.256;19.026;2022-07-19T14:27:26;8.35;;;2.53;;
18387;SDS011;9320;50.256;19.026;2022-07-19T14:29:54;6.00;;;2.67;;
18387;SDS011;9320;50.256;19.026;2022-07-19T14:32:24;6.55;;;2.38;;
18387;SDS011;9320;50.256;19.026;2022-07-19T14:34:53;7.03;;;2.30;;
18387;SDS011;9320;50.256;19.026;2022-07-19T14:37:21;6.53;;;2.53;;
18387;SDS011;9320;50.256;19.026;2022-07-19T14:39:54;6.18;;;2.45;;
18387;SDS011;9320;50.256;19.026;2022-07-19T14:42:23;4.40;;;2.22;;
18387;SDS011;9320;50.256;19.026;2022-07-19T14:44:51;5.97;;;2.55;;
18387;SDS011;9320;50.256;19.026;2022-07-19T14:47:19;4.38;;;2.35;;
18387;SDS011;9320;50.256;19.026;2022-07-19T14:49:49;7.93;;;2.50;;
18387;SDS011;9320;50.256;19.026;2022-07-19T14:52:17;8.30;;;2.42;;
18387;SDS011;9320;50.256;19.026;2022-07-19T14:54:45;6.70;;;2.42;;
18387;SDS011;9320;50.256;19.026;2022-07-19T14:57:14;5.78;;;2.47;;
18387;SDS011;9320;50.256;19.026;2022-07-19T14:59:42;5.95;;;2.72;;
18387;SDS011;9320;50.256;19.026;2022-07-19T15:02:15;6.80;;;2.35;;